sensor_id;sensor_type;location;lat;lon;timestamp;P1;durP1;ratioP1;P2;durP2;ratioP2
31990;SDS011;18508;49.386;8.370;2023-12-22T00:01:42;1.60;;;0.50;;
31990;SDS011;18508;49.386;8.370;2023-12-22T00:04:10;2.13;;;0.50;;
31990;SDS011;18508;49.386;8.370;2023-12-22T00:06:40;1.48;;;0.50;;
31990;SDS011;18508;49.386;8.370;2023-12-22T00:09:08;2.13;;;0.50;;
31990;SDS011;18508;49.386;8.370;2023-12-22T00:11:36;1.63;;;0.63;;
31990;SDS011;18508;49.386;8.370;2023-12-22T00:14:06;2.70;;;0.40;;
31990;SDS011;18508;49.386;8.370;2023-12-22T00:16:34;1.98;;;0.40;;
31990;SDS011;18508;49.386;8.370;2023-12-22T00:19:04;4.50;;;0.50;;
31990;SDS011;18508;49.386;8.370;2023-12-22T00:21:32;9.55;;;0.80;;
31990;SDS011;18508;49.386;8.370;2023-12-22T00:24:00;2.42;;;0.38;;
31990;SDS011;18508;49.386;8.370;2023-12-22T00:26:28;0.70;;;0.45;;
31990;SDS011;18508;49.386;8.370;2023-12-22T00:28:57;0.40;;;0.20;;
31990;SDS011;18508;49.386;8.370;2023-12-22T00:31:26;1.42;;;0.50;;
31990;SDS011;18508;49.386;8.370;2023-12-22T00:33:54;3.03;;;1.02;;
31990;SDS011;18508;49.386;8.370;2023-12-22T00:36:23;1.95;;;0.70;;
31990;SDS011;18508;49.386;8.370;2023-12-22T00:38:51;1.80;;;0.60;;
31990;SDS011;18508;49.386;8.370;2023-12-22T00:41:19;4.30;;;0.60;;
31990;SDS011;18508;49.386;8.370;2023-12-22T00:43:48;3.55;;;1.38;;
31990;SDS011;18508;49.386;8.370;2023-12-22T00:46:16;3.17;;;1.13;;
31990;SDS011;18508;49.386;8.370;2023-12-22T00:48:47;3.78;;;1.73;;
31990;SDS011;18508;49.386;8.370;2023-12-22T00:51:15;2.10;;;0.80;;
31990;SDS011;18508;49.386;8.370;2023-12-22T00:53:43;0.82;;;0.47;;
31990;SDS011;18508;49.386;8.370;2023-12-22T00:56:12;1.55;;;0.80;;
31990;SDS011;18508;49.386;8.370;2023-12-22T00:58:40;1.77;;;0.57;;
31990;SDS011;18508;49.386;8.370;2023-12-22T01:01:15;3.53;;;0.80;;
31990;SDS011;18508;49.386;8.370;2023-12-22T01:03:43;2.47;;;0.70;;
31990;SDS011;18508;49.386;8.370;2023-12-22T01:06:13;2.00;;;0.73;;
31990;SDS011;18508;49.386;8.370;2023-12-22T01:08:41;9.40;;;2.45;;
31990;SDS011;18508;49.386;8.370;2023-12-22T01:11:10;9.48;;;1.60;;
31990;SDS011;18508;49.386;8.370;2023-12-22T01:13:38;6.43;;;1.00;;
31990;SDS011;18508;49.386;8.370;2023-12-22T01:16:06;3.90;;;1.10;;
31990;SDS011;18508;49.386;8.370;2023-12-22T01:18:34;0.45;;;0.30;;
31990;SDS011;18508;49.386;8.370;2023-12-22T01:21:03;0.95;;;0.43;;
31990;SDS011;18508;49.386;8.370;2023-12-22T01:23:33;2.28;;;0.60;;
31990;SDS011;18508;49.386;8.370;2023-12-22T01:26:01;0.57;;;0.30;;
31990;SDS011;18508;49.386;8.370;2023-12-22T01:28:30;0.95;;;0.35;;
31990;SDS011;18508;49.386;8.370;2023-12-22T01:30:58;0.85;;;0.40;;
31990;SDS011;18508;49.386;8.370;2023-12-22T01:33:26;2.58;;;0.32;;
31990;SDS011;18508;49.386;8.370;2023-12-22T01:35:55;3.08;;;0.70;;
31990;SDS011;18508;49.386;8.370;2023-12-22T01:38:23;1.15;;;0.60;;
31990;SDS011;18508;49.386;8.370;2023-12-22T01:40:53;3.10;;;0.60;;
31990;SDS011;18508;49.386;8.370;2023-12-22T01:43:21;3.40;;;0.90;;
31990;SDS011;18508;49.386;8.370;2023-12-22T01:45:50;3.15;;;0.82;;
31990;SDS011;18508;49.386;8.370;2023-12-22T01:48:22;2.55;;;1.25;;
31990;SDS011;18508;49.386;8.370;2023-12-22T01:50:51;5.75;;;1.15;;
31990;SDS011;18508;49.386;8.370;2023-12-22T01:53:20;9.02;;;1.45;;
31990;SDS011;18508;49.386;8.370;2023-12-22T01:55:49;5.18;;;1.33;;
31990;SDS011;18508;49.386;8.370;2023-12-22T01:58:20;2.72;;;1.10;;
31990;SDS011;18508;49.386;8.370;2023-12-22T02:00:50;9.27;;;2.53;;
31990;SDS011;18508;49.386;8.370;2023-12-22T02:03:20;7.57;;;1.23;;
31990;SDS011;18508;49.386;8.370;2023-12-22T02:05:49;5.78;;;1.92;;
31990;SDS011;18508;49.386;8.370;2023-12-22T02:08:18;3.15;;;1.02;;
31990;SDS011;18508;49.386;8.370;2023-12-22T02:10:48;6.28;;;1.23;;
31990;SDS011;18508;49.386;8.370;2023-12-22T02:13:16;5.55;;;1.20;;
31990;SDS011;18508;49.386;8.370;2023-12-22T02:15:46;8.00;;;1.50;;
31990;SDS011;18508;49.386;8.370;2023-12-22T02:18:18;6.13;;;1.15;;
31990;SDS011;18508;49.386;8.370;2023-12-22T02:20:49;5.97;;;1.20;;
31990;SDS011;18508;49.386;8.370;2023-12-22T02:23:19;7.03;;;1.27;;
31990;SDS011;18508;49.386;8.370;2023-12-22T02:25:47;5.93;;;1.88;;
31990;SDS011;18508;49.386;8.370;2023-12-22T02:28:20;9.80;;;1.30;;
31990;SDS011;18508;49.386;8.370;2023-12-22T02:30:52;9.88;;;1.30;;
31990;SDS011;18508;49.386;8.370;2023-12-22T02:33:24;7.25;;;1.48;;
31990;SDS011;18508;49.386;8.370;2023-12-22T02:35:56;6.18;;;1.20;;
31990;SDS011;18508;49.386;8.370;2023-12-22T02:38:33;5.55;;;1.65;;
31990;SDS011;18508;49.386;8.370;2023-12-22T02:41:03;5.95;;;1.58;;
31990;SDS011;18508;49.386;8.370;2023-12-22T02:43:32;5.03;;;1.27;;
31990;SDS011;18508;49.386;8.370;2023-12-22T02:46:02;6.18;;;1.35;;
31990;SDS011;18508;49.386;8.370;2023-12-22T02:48:33;8.65;;;1.42;;
31990;SDS011;18508;49.386;8.370;2023-12-22T02:51:02;8.23;;;1.95;;
31990;SDS011;18508;49.386;8.370;2023-12-22T02:53:32;7.88;;;1.60;;
31990;SDS011;18508;49.386;8.370;2023-12-22T02:56:01;5.07;;;1.33;;
31990;SDS011;18508;49.386;8.370;2023-12-22T02:58:30;4.25;;;0.95;;
31990;SDS011;18508;49.386;8.370;2023-12-22T03:00:59;6.60;;;1.60;;
31990;SDS011;18508;49.386;8.370;2023-12-22T03:03:27;4.88;;;1.60;;
31990;SDS011;18508;49.386;8.370;2023-12-22T03:05:55;7.78;;;1.77;;
31990;SDS011;18508;49.386;8.370;2023-12-22T03:08:24;9.85;;;1.88;;
31990;SDS011;18508;49.386;8.370;2023-12-22T03:10:54;4.85;;;1.10;;
31990;SDS011;18508;49.386;8.370;2023-12-22T03:13:22;8.07;;;1.50;;
31990;SDS011;18508;49.386;8.370;2023-12-22T03:15:50;3.85;;;1.40;;
31990;SDS011;18508;49.386;8.370;2023-12-22T03:18:20;7.13;;;1.73;;
31990;SDS011;18508;49.386;8.370;2023-12-22T03:20:50;10.07;;;1.75;;
31990;SDS011;18508;49.386;8.370;2023-12-22T03:23:18;3.25;;;1.70;;
31990;SDS011;18508;49.386;8.370;2023-12-22T03:25:47;5.18;;;1.75;;
31990;SDS011;18508;49.386;8.370;2023-12-22T03:28:19;3.38;;;1.13;;
31990;SDS011;18508;49.386;8.370;2023-12-22T03:30:47;3.50;;;1.23;;
31990;SDS011;18508;49.386;8.370;2023-12-22T03:33:15;6.13;;;1.42;;
31990;SDS011;18508;49.386;8.370;2023-12-22T03:35:44;7.25;;;1.40;;
31990;SDS011;18508;49.386;8.370;2023-12-22T03:38:12;5.88;;;1.40;;
31990;SDS011;18508;49.386;8.370;2023-12-22T03:40:40;3.53;;;1.13;;
31990;SDS011;18508;49.386;8.370;2023-12-22T03:43:09;4.57;;;1.30;;
31990;SDS011;18508;49.386;8.370;2023-12-22T03:45:39;6.32;;;1.10;;
31990;SDS011;18508;49.386;8.370;2023-12-22T03:48:07;2.55;;;0.73;;
31990;SDS011;18508;49.386;8.370;2023-12-22T03:50:35;3.67;;;1.10;;
31990;SDS011;18508;49.386;8.370;2023-12-22T03:53:04;5.00;;;1.35;;
31990;SDS011;18508;49.386;8.370;2023-12-22T03:55:32;5.70;;;0.60;;
31990;SDS011;18508;49.386;8.370;2023-12-22T03:58:00;3.92;;;0.98;;
31990;SDS011;18508;49.386;8.370;2023-12-22T04:00:30;3.75;;;1.13;;
31990;SDS011;18508;49.386;8.370;2023-12-22T04:03:00;4.90;;;1.05;;
31990;SDS011;18508;49.386;8.370;2023-12-22T04:05:31;4.20;;;1.60;;
31990;SDS011;18508;49.386;8.370;2023-12-22T04:07:59;8.70;;;1.30;;
31990;SDS011;18508;49.386;8.370;2023-12-22T04:10:28;6.20;;;1.15;;
31990;SDS011;18508;49.386;8.370;2023-12-22T04:12:57;5.90;;;1.13;;
31990;SDS011;18508;49.386;8.370;2023-12-22T04:15:25;3.53;;;0.93;;
31990;SDS011;18508;49.386;8.370;2023-12-22T04:17:54;5.88;;;1.23;;
31990;SDS011;18508;49.386;8.370;2023-12-22T04:20:24;3.65;;;1.38;;
31990;SDS011;18508;49.386;8.370;2023-12-22T04:22:52;5.30;;;1.33;;
31990;SDS011;18508;49.386;8.370;2023-12-22T04:25:20;5.32;;;0.95;;
31990;SDS011;18508;49.386;8.370;2023-12-22T04:27:51;3.72;;;1.02;;
31990;SDS011;18508;49.386;8.370;2023-12-22T04:30:19;4.60;;;1.50;;
31990;SDS011;18508;49.386;8.370;2023-12-22T04:32:47;4.35;;;1.02;;
31990;SDS011;18508;49.386;8.370;2023-12-22T04:35:16;4.47;;;1.27;;
31990;SDS011;18508;49.386;8.370;2023-12-22T04:37:48;4.43;;;1.08;;
31990;SDS011;18508;49.386;8.370;2023-12-22T04:40:18;5.18;;;2.33;;
31990;SDS011;18508;49.386;8.370;2023-12-22T04:42:48;4.88;;;1.35;;
31990;SDS011;18508;49.386;8.370;2023-12-22T04:45:16;4.10;;;1.45;;
31990;SDS011;18508;49.386;8.370;2023-12-22T04:47:49;4.45;;;1.30;;
31990;SDS011;18508;49.386;8.370;2023-12-22T04:50:18;4.15;;;1.00;;
31990;SDS011;18508;49.386;8.370;2023-12-22T04:52:48;4.47;;;1.25;;
31990;SDS011;18508;49.386;8.370;2023-12-22T04:55:16;4.55;;;1.10;;
31990;SDS011;18508;49.386;8.370;2023-12-22T04:57:45;7.75;;;1.52;;
31990;SDS011;18508;49.386;8.370;2023-12-22T05:00:14;3.30;;;1.48;;
31990;SDS011;18508;49.386;8.370;2023-12-22T05:02:46;5.18;;;1.55;;
31990;SDS011;18508;49.386;8.370;2023-12-22T05:05:15;12.18;;;1.88;;
31990;SDS011;18508;49.386;8.370;2023-12-22T05:07:44;6.65;;;1.25;;
31990;SDS011;18508;49.386;8.370;2023-12-22T05:10:15;5.25;;;1.17;;
31990;SDS011;18508;49.386;8.370;2023-12-22T05:12:43;10.65;;;1.67;;
31990;SDS011;18508;49.386;8.370;2023-12-22T05:15:12;9.93;;;1.85;;
31990;SDS011;18508;49.386;8.370;2023-12-22T05:17:43;12.43;;;1.58;;
31990;SDS011;18508;49.386;8.370;2023-12-22T05:20:12;6.20;;;1.40;;
31990;SDS011;18508;49.386;8.370;2023-12-22T05:22:41;9.48;;;3.25;;
31990;SDS011;18508;49.386;8.370;2023-12-22T05:25:12;9.63;;;1.98;;
31990;SDS011;18508;49.386;8.370;2023-12-22T05:27:46;7.78;;;1.42;;
31990;SDS011;18508;49.386;8.370;2023-12-22T05:30:14;8.32;;;1.98;;
31990;SDS011;18508;49.386;8.370;2023-12-22T05:32:44;6.00;;;1.90;;
31990;SDS011;18508;49.386;8.370;2023-12-22T05:35:12;7.22;;;1.83;;
31990;SDS011;18508;49.386;8.370;2023-12-22T05:37:41;8.75;;;1.58;;
31990;SDS011;18508;49.386;8.370;2023-12-22T05:40:09;8.40;;;1.98;;
31990;SDS011;18508;49.386;8.370;2023-12-22T05:42:38;4.07;;;1.65;;
31990;SDS011;18508;49.386;8.370;2023-12-22T05:45:08;7.28;;;1.65;;
31990;SDS011;18508;49.386;8.370;2023-12-22T05:47:37;9.82;;;1.70;;
31990;SDS011;18508;49.386;8.370;2023-12-22T05:50:06;5.20;;;1.42;;
31990;SDS011;18508;49.386;8.370;2023-12-22T05:52:37;7.70;;;1.42;;
31990;SDS011;18508;49.386;8.370;2023-12-22T05:55:06;6.85;;;1.48;;
31990;SDS011;18508;49.386;8.370;2023-12-22T05:57:35;12.93;;;1.63;;
31990;SDS011;18508;49.386;8.370;2023-12-22T06:00:04;6.70;;;1.65;;
31990;SDS011;18508;49.386;8.370;2023-12-22T06:02:37;10.05;;;2.85;;
31990;SDS011;18508;49.386;8.370;2023-12-22T06:05:06;7.25;;;2.00;;
31990;SDS011;18508;49.386;8.370;2023-12-22T06:07:35;7.20;;;1.70;;
31990;SDS011;18508;49.386;8.370;2023-12-22T06:10:05;5.32;;;1.70;;
31990;SDS011;18508;49.386;8.370;2023-12-22T06:12:35;5.53;;;1.42;;
31990;SDS011;18508;49.386;8.370;2023-12-22T06:15:04;7.20;;;1.58;;
31990;SDS011;18508;49.386;8.370;2023-12-22T06:17:33;11.68;;;3.85;;
31990;SDS011;18508;49.386;8.370;2023-12-22T06:20:04;13.00;;;3.58;;
31990;SDS011;18508;49.386;8.370;2023-12-22T06:22:33;11.85;;;2.72;;
31990;SDS011;18508;49.386;8.370;2023-12-22T06:25:01;7.57;;;2.53;;
31990;SDS011;18508;49.386;8.370;2023-12-22T06:27:33;10.80;;;2.42;;
31990;SDS011;18508;49.386;8.370;2023-12-22T06:30:03;10.43;;;2.63;;
31990;SDS011;18508;49.386;8.370;2023-12-22T06:32:32;7.07;;;2.00;;
31990;SDS011;18508;49.386;8.370;2023-12-22T06:35:04;10.32;;;1.90;;
31990;SDS011;18508;49.386;8.370;2023-12-22T06:37:32;10.77;;;2.42;;
31990;SDS011;18508;49.386;8.370;2023-12-22T06:40:01;10.77;;;2.60;;
31990;SDS011;18508;49.386;8.370;2023-12-22T06:42:29;6.47;;;2.38;;
31990;SDS011;18508;49.386;8.370;2023-12-22T06:44:58;5.07;;;1.98;;
31990;SDS011;18508;49.386;8.370;2023-12-22T06:47:26;5.28;;;1.67;;
31990;SDS011;18508;49.386;8.370;2023-12-22T06:49:55;8.98;;;1.73;;
31990;SDS011;18508;49.386;8.370;2023-12-22T06:52:25;7.22;;;2.25;;
31990;SDS011;18508;49.386;8.370;2023-12-22T06:54:53;8.63;;;1.63;;
31990;SDS011;18508;49.386;8.370;2023-12-22T06:57:22;6.00;;;1.98;;
31990;SDS011;18508;49.386;8.370;2023-12-22T06:59:54;4.68;;;1.15;;
31990;SDS011;18508;49.386;8.370;2023-12-22T07:02:23;5.25;;;1.10;;
31990;SDS011;18508;49.386;8.370;2023-12-22T07:08:06;6.75;;;1.40;;
31990;SDS011;18508;49.386;8.370;2023-12-22T07:10:34;6.88;;;1.67;;
31990;SDS011;18508;49.386;8.370;2023-12-22T07:13:05;5.55;;;0.90;;
31990;SDS011;18508;49.386;8.370;2023-12-22T07:15:33;4.75;;;1.13;;
31990;SDS011;18508;49.386;8.370;2023-12-22T07:18:02;5.65;;;2.17;;
31990;SDS011;18508;49.386;8.370;2023-12-22T07:20:31;4.60;;;1.20;;
31990;SDS011;18508;49.386;8.370;2023-12-22T07:23:00;5.30;;;1.05;;
31990;SDS011;18508;49.386;8.370;2023-12-22T07:25:34;2.58;;;0.80;;
31990;SDS011;18508;49.386;8.370;2023-12-22T07:28:02;6.35;;;1.65;;
31990;SDS011;18508;49.386;8.370;2023-12-22T07:30:32;2.60;;;1.30;;
31990;SDS011;18508;49.386;8.370;2023-12-22T07:33:01;4.88;;;1.52;;
31990;SDS011;18508;49.386;8.370;2023-12-22T07:35:30;3.35;;;1.65;;
31990;SDS011;18508;49.386;8.370;2023-12-22T07:37:59;5.32;;;1.60;;
31990;SDS011;18508;49.386;8.370;2023-12-22T07:40:30;6.10;;;1.30;;
31990;SDS011;18508;49.386;8.370;2023-12-22T07:43:01;3.67;;;1.30;;
31990;SDS011;18508;49.386;8.370;2023-12-22T07:45:31;4.75;;;0.90;;
31990;SDS011;18508;49.386;8.370;2023-12-22T07:48:00;2.80;;;0.70;;
31990;SDS011;18508;49.386;8.370;2023-12-22T07:50:29;1.35;;;0.60;;
31990;SDS011;18508;49.386;8.370;2023-12-22T07:52:58;4.03;;;0.88;;
31990;SDS011;18508;49.386;8.370;2023-12-22T07:55:36;2.03;;;0.77;;
31990;SDS011;18508;49.386;8.370;2023-12-22T07:58:05;3.85;;;0.75;;
31990;SDS011;18508;49.386;8.370;2023-12-22T08:00:34;2.72;;;0.82;;
31990;SDS011;18508;49.386;8.370;2023-12-22T08:03:03;5.97;;;1.33;;
31990;SDS011;18508;49.386;8.370;2023-12-22T08:05:35;2.67;;;1.10;;
31990;SDS011;18508;49.386;8.370;2023-12-22T08:08:05;7.95;;;1.40;;
31990;SDS011;18508;49.386;8.370;2023-12-22T08:10:36;4.40;;;1.13;;
31990;SDS011;18508;49.386;8.370;2023-12-22T08:13:06;7.22;;;1.40;;
31990;SDS011;18508;49.386;8.370;2023-12-22T08:15:36;5.03;;;1.20;;
31990;SDS011;18508;49.386;8.370;2023-12-22T08:18:05;7.22;;;1.60;;
31990;SDS011;18508;49.386;8.370;2023-12-22T08:20:35;5.43;;;1.30;;
31990;SDS011;18508;49.386;8.370;2023-12-22T08:23:08;6.25;;;1.20;;
31990;SDS011;18508;49.386;8.370;2023-12-22T08:25:41;5.15;;;1.40;;
31990;SDS011;18508;49.386;8.370;2023-12-22T08:28:11;10.32;;;1.58;;
31990;SDS011;18508;49.386;8.370;2023-12-22T08:30:40;6.60;;;2.05;;
31990;SDS011;18508;49.386;8.370;2023-12-22T08:33:11;7.03;;;2.08;;
31990;SDS011;18508;49.386;8.370;2023-12-22T08:35:40;10.07;;;2.60;;
31990;SDS011;18508;49.386;8.370;2023-12-22T08:38:10;9.98;;;1.77;;
31990;SDS011;18508;49.386;8.370;2023-12-22T08:40:41;7.88;;;2.25;;
31990;SDS011;18508;49.386;8.370;2023-12-22T08:43:11;8.35;;;1.60;;
31990;SDS011;18508;49.386;8.370;2023-12-22T08:45:40;7.10;;;1.70;;
31990;SDS011;18508;49.386;8.370;2023-12-22T08:48:08;10.80;;;2.70;;
31990;SDS011;18508;49.386;8.370;2023-12-22T08:50:39;7.93;;;2.50;;
31990;SDS011;18508;49.386;8.370;2023-12-22T08:53:09;11.20;;;2.40;;
31990;SDS011;18508;49.386;8.370;2023-12-22T08:55:37;12.82;;;2.35;;
31990;SDS011;18508;49.386;8.370;2023-12-22T08:58:10;8.88;;;1.85;;
31990;SDS011;18508;49.386;8.370;2023-12-22T09:00:39;10.88;;;3.72;;
31990;SDS011;18508;49.386;8.370;2023-12-22T09:03:11;12.40;;;3.90;;
31990;SDS011;18508;49.386;8.370;2023-12-22T09:05:42;12.52;;;2.67;;
31990;SDS011;18508;49.386;8.370;2023-12-22T09:08:13;11.57;;;2.70;;
31990;SDS011;18508;49.386;8.370;2023-12-22T09:10:43;12.00;;;2.80;;
31990;SDS011;18508;49.386;8.370;2023-12-22T09:13:13;12.35;;;2.50;;
31990;SDS011;18508;49.386;8.370;2023-12-22T09:15:42;9.90;;;2.13;;
31990;SDS011;18508;49.386;8.370;2023-12-22T09:18:13;16.30;;;2.78;;
31990;SDS011;18508;49.386;8.370;2023-12-22T09:20:42;13.77;;;3.10;;
31990;SDS011;18508;49.386;8.370;2023-12-22T09:23:11;12.73;;;3.67;;
31990;SDS011;18508;49.386;8.370;2023-12-22T09:25:40;19.05;;;3.60;;
31990;SDS011;18508;49.386;8.370;2023-12-22T09:28:09;18.75;;;3.25;;
31990;SDS011;18508;49.386;8.370;2023-12-22T09:30:39;10.55;;;2.75;;
31990;SDS011;18508;49.386;8.370;2023-12-22T09:33:08;13.25;;;3.55;;
31990;SDS011;18508;49.386;8.370;2023-12-22T09:35:37;17.73;;;2.83;;
31990;SDS011;18508;49.386;8.370;2023-12-22T09:38:08;12.80;;;1.98;;
31990;SDS011;18508;49.386;8.370;2023-12-22T09:40:39;11.68;;;2.85;;
31990;SDS011;18508;49.386;8.370;2023-12-22T09:43:09;15.13;;;3.35;;
31990;SDS011;18508;49.386;8.370;2023-12-22T09:45:46;12.55;;;3.17;;
31990;SDS011;18508;49.386;8.370;2023-12-22T09:48:16;12.65;;;3.00;;
31990;SDS011;18508;49.386;8.370;2023-12-22T09:50:54;14.82;;;3.35;;
31990;SDS011;18508;49.386;8.370;2023-12-22T09:53:23;12.75;;;2.60;;
31990;SDS011;18508;49.386;8.370;2023-12-22T09:55:55;15.32;;;3.15;;
31990;SDS011;18508;49.386;8.370;2023-12-22T09:58:23;14.43;;;3.22;;
31990;SDS011;18508;49.386;8.370;2023-12-22T10:00:55;14.38;;;3.28;;
31990;SDS011;18508;49.386;8.370;2023-12-22T10:03:26;22.77;;;4.47;;
31990;SDS011;18508;49.386;8.370;2023-12-22T10:05:55;16.95;;;4.32;;
31990;SDS011;18508;49.386;8.370;2023-12-22T10:08:24;16.15;;;3.53;;
31990;SDS011;18508;49.386;8.370;2023-12-22T10:10:53;23.45;;;4.30;;
31990;SDS011;18508;49.386;8.370;2023-12-22T10:13:22;12.50;;;2.28;;
31990;SDS011;18508;49.386;8.370;2023-12-22T10:15:56;11.30;;;2.90;;
31990;SDS011;18508;49.386;8.370;2023-12-22T10:18:33;17.23;;;3.53;;
31990;SDS011;18508;49.386;8.370;2023-12-22T10:21:02;14.98;;;2.53;;
31990;SDS011;18508;49.386;8.370;2023-12-22T10:23:33;10.35;;;3.10;;
31990;SDS011;18508;49.386;8.370;2023-12-22T10:26:02;10.35;;;3.47;;
31990;SDS011;18508;49.386;8.370;2023-12-22T10:28:31;17.30;;;3.38;;
31990;SDS011;18508;49.386;8.370;2023-12-22T10:31:03;12.90;;;3.10;;
31990;SDS011;18508;49.386;8.370;2023-12-22T10:33:33;11.80;;;3.65;;
31990;SDS011;18508;49.386;8.370;2023-12-22T10:36:02;13.55;;;3.17;;
31990;SDS011;18508;49.386;8.370;2023-12-22T10:38:32;15.98;;;2.90;;
31990;SDS011;18508;49.386;8.370;2023-12-22T10:41:03;13.13;;;2.75;;
31990;SDS011;18508;49.386;8.370;2023-12-22T10:43:47;14.13;;;3.70;;
31990;SDS011;18508;49.386;8.370;2023-12-22T10:46:27;12.45;;;3.30;;
31990;SDS011;18508;49.386;8.370;2023-12-22T10:49:05;14.30;;;4.30;;
31990;SDS011;18508;49.386;8.370;2023-12-22T10:51:34;15.00;;;4.13;;
31990;SDS011;18508;49.386;8.370;2023-12-22T10:54:07;17.33;;;3.88;;
31990;SDS011;18508;49.386;8.370;2023-12-22T10:56:40;8.88;;;2.63;;
31990;SDS011;18508;49.386;8.370;2023-12-22T10:59:09;14.45;;;3.22;;
31990;SDS011;18508;49.386;8.370;2023-12-22T11:01:40;10.05;;;1.70;;
31990;SDS011;18508;49.386;8.370;2023-12-22T11:04:11;10.20;;;3.58;;
31990;SDS011;18508;49.386;8.370;2023-12-22T11:06:47;8.75;;;2.78;;
31990;SDS011;18508;49.386;8.370;2023-12-22T11:09:21;11.50;;;2.83;;
31990;SDS011;18508;49.386;8.370;2023-12-22T11:11:54;14.85;;;2.72;;
31990;SDS011;18508;49.386;8.370;2023-12-22T11:14:25;11.82;;;2.65;;
31990;SDS011;18508;49.386;8.370;2023-12-22T11:16:59;11.70;;;2.95;;
31990;SDS011;18508;49.386;8.370;2023-12-22T11:19:37;7.78;;;2.70;;
31990;SDS011;18508;49.386;8.370;2023-12-22T11:24:42;12.48;;;2.78;;
31990;SDS011;18508;49.386;8.370;2023-12-22T11:27:13;10.70;;;3.20;;
31990;SDS011;18508;49.386;8.370;2023-12-22T11:29:48;6.93;;;2.13;;
31990;SDS011;18508;49.386;8.370;2023-12-22T11:32:26;8.50;;;2.30;;
31990;SDS011;18508;49.386;8.370;2023-12-22T11:34:58;6.65;;;2.17;;
31990;SDS011;18508;49.386;8.370;2023-12-22T11:37:29;4.60;;;2.03;;
31990;SDS011;18508;49.386;8.370;2023-12-22T11:40:01;5.07;;;1.83;;
31990;SDS011;18508;49.386;8.370;2023-12-22T11:42:33;7.40;;;1.63;;
31990;SDS011;18508;49.386;8.370;2023-12-22T11:45:13;7.28;;;1.60;;
31990;SDS011;18508;49.386;8.370;2023-12-22T11:47:46;5.97;;;1.50;;
31990;SDS011;18508;49.386;8.370;2023-12-22T11:50:27;4.13;;;1.30;;
31990;SDS011;18508;49.386;8.370;2023-12-22T11:53:19;4.32;;;1.05;;
31990;SDS011;18508;49.386;8.370;2023-12-22T11:55:57;4.70;;;1.00;;
31990;SDS011;18508;49.386;8.370;2023-12-22T11:58:38;3.75;;;1.30;;
31990;SDS011;18508;49.386;8.370;2023-12-22T12:01:08;2.92;;;1.20;;
31990;SDS011;18508;49.386;8.370;2023-12-22T12:03:42;5.00;;;1.40;;
31990;SDS011;18508;49.386;8.370;2023-12-22T12:06:17;3.13;;;0.95;;
31990;SDS011;18508;49.386;8.370;2023-12-22T12:08:59;3.45;;;1.13;;
31990;SDS011;18508;49.386;8.370;2023-12-22T12:14:40;2.50;;;1.15;;
31990;SDS011;18508;49.386;8.370;2023-12-22T12:17:15;4.25;;;0.93;;
31990;SDS011;18508;49.386;8.370;2023-12-22T12:19:50;2.33;;;0.90;;
31990;SDS011;18508;49.386;8.370;2023-12-22T12:22:19;4.20;;;0.85;;
31990;SDS011;18508;49.386;8.370;2023-12-22T12:24:51;3.45;;;0.90;;
31990;SDS011;18508;49.386;8.370;2023-12-22T12:27:20;3.72;;;1.30;;
31990;SDS011;18508;49.386;8.370;2023-12-22T12:29:53;2.00;;;0.82;;
31990;SDS011;18508;49.386;8.370;2023-12-22T12:32:24;3.67;;;1.83;;
31990;SDS011;18508;49.386;8.370;2023-12-22T12:37:26;3.00;;;1.15;;
31990;SDS011;18508;49.386;8.370;2023-12-22T12:39:55;2.08;;;1.17;;
31990;SDS011;18508;49.386;8.370;2023-12-22T12:42:28;4.20;;;1.02;;
31990;SDS011;18508;49.386;8.370;2023-12-22T12:44:57;4.80;;;0.90;;
31990;SDS011;18508;49.386;8.370;2023-12-22T12:47:27;3.28;;;0.88;;
31990;SDS011;18508;49.386;8.370;2023-12-22T12:49:58;2.38;;;0.60;;
31990;SDS011;18508;49.386;8.370;2023-12-22T12:52:27;1.83;;;0.82;;
31990;SDS011;18508;49.386;8.370;2023-12-22T12:54:58;7.47;;;2.15;;
31990;SDS011;18508;49.386;8.370;2023-12-22T12:57:28;3.45;;;1.27;;
31990;SDS011;18508;49.386;8.370;2023-12-22T13:00:00;1.40;;;0.77;;
31990;SDS011;18508;49.386;8.370;2023-12-22T13:02:30;1.13;;;0.50;;
31990;SDS011;18508;49.386;8.370;2023-12-22T13:05:07;1.10;;;0.60;;
31990;SDS011;18508;49.386;8.370;2023-12-22T13:07:41;0.77;;;0.40;;
31990;SDS011;18508;49.386;8.370;2023-12-22T13:10:19;0.80;;;0.55;;
31990;SDS011;18508;49.386;8.370;2023-12-22T13:12:52;1.83;;;0.50;;
31990;SDS011;18508;49.386;8.370;2023-12-22T13:15:23;1.02;;;0.60;;
31990;SDS011;18508;49.386;8.370;2023-12-22T13:17:59;1.50;;;0.30;;
31990;SDS011;18508;49.386;8.370;2023-12-22T13:20:33;1.38;;;0.32;;
31990;SDS011;18508;49.386;8.370;2023-12-22T13:23:05;2.10;;;0.80;;
31990;SDS011;18508;49.386;8.370;2023-12-22T13:25:39;2.22;;;0.70;;
31990;SDS011;18508;49.386;8.370;2023-12-22T13:28:08;1.02;;;0.40;;
31990;SDS011;18508;49.386;8.370;2023-12-22T13:30:39;1.35;;;0.57;;
31990;SDS011;18508;49.386;8.370;2023-12-22T13:33:10;0.98;;;0.60;;
31990;SDS011;18508;49.386;8.370;2023-12-22T13:35:45;3.17;;;1.30;;
31990;SDS011;18508;49.386;8.370;2023-12-22T13:38:20;1.20;;;0.70;;
31990;SDS011;18508;49.386;8.370;2023-12-22T13:40:54;1.25;;;0.50;;
31990;SDS011;18508;49.386;8.370;2023-12-22T13:43:27;0.55;;;0.45;;
31990;SDS011;18508;49.386;8.370;2023-12-22T13:45:58;1.73;;;0.45;;
31990;SDS011;18508;49.386;8.370;2023-12-22T13:48:33;1.20;;;0.47;;
31990;SDS011;18508;49.386;8.370;2023-12-22T13:51:07;4.45;;;0.57;;
31990;SDS011;18508;49.386;8.370;2023-12-22T13:53:46;0.65;;;0.30;;
31990;SDS011;18508;49.386;8.370;2023-12-22T13:56:16;2.30;;;0.95;;
31990;SDS011;18508;49.386;8.370;2023-12-22T13:58:49;2.77;;;0.70;;
31990;SDS011;18508;49.386;8.370;2023-12-22T14:01:20;1.55;;;0.50;;
31990;SDS011;18508;49.386;8.370;2023-12-22T14:03:55;3.72;;;1.40;;
31990;SDS011;18508;49.386;8.370;2023-12-22T14:06:31;4.25;;;1.50;;
31990;SDS011;18508;49.386;8.370;2023-12-22T14:09:06;2.42;;;0.88;;
31990;SDS011;18508;49.386;8.370;2023-12-22T14:11:41;7.15;;;2.90;;
31990;SDS011;18508;49.386;8.370;2023-12-22T14:14:23;1.90;;;1.00;;
31990;SDS011;18508;49.386;8.370;2023-12-22T14:16:52;1.15;;;0.60;;
31990;SDS011;18508;49.386;8.370;2023-12-22T14:19:23;2.65;;;1.15;;
31990;SDS011;18508;49.386;8.370;2023-12-22T14:21:54;0.90;;;0.52;;
31990;SDS011;18508;49.386;8.370;2023-12-22T14:24:29;1.48;;;0.80;;
31990;SDS011;18508;49.386;8.370;2023-12-22T14:26:58;1.40;;;0.80;;
31990;SDS011;18508;49.386;8.370;2023-12-22T14:29:29;2.15;;;0.88;;
31990;SDS011;18508;49.386;8.370;2023-12-22T14:32:00;1.70;;;0.80;;
31990;SDS011;18508;49.386;8.370;2023-12-22T14:34:29;2.05;;;0.75;;
31990;SDS011;18508;49.386;8.370;2023-12-22T14:37:04;0.30;;;0.30;;
31990;SDS011;18508;49.386;8.370;2023-12-22T14:39:34;1.23;;;0.77;;
31990;SDS011;18508;49.386;8.370;2023-12-22T14:42:05;0.73;;;0.40;;
31990;SDS011;18508;49.386;8.370;2023-12-22T14:44:34;1.35;;;0.77;;
31990;SDS011;18508;49.386;8.370;2023-12-22T14:47:05;1.73;;;0.90;;
31990;SDS011;18508;49.386;8.370;2023-12-22T14:49:37;1.27;;;0.77;;
31990;SDS011;18508;49.386;8.370;2023-12-22T14:52:08;3.45;;;1.10;;
31990;SDS011;18508;49.386;8.370;2023-12-22T14:54:37;2.03;;;1.10;;
31990;SDS011;18508;49.386;8.370;2023-12-22T14:57:06;2.83;;;1.00;;
31990;SDS011;18508;49.386;8.370;2023-12-22T14:59:35;1.98;;;0.90;;
31990;SDS011;18508;49.386;8.370;2023-12-22T15:02:03;4.05;;;2.20;;
31990;SDS011;18508;49.386;8.370;2023-12-22T15:04:33;8.30;;;2.92;;
31990;SDS011;18508;49.386;8.370;2023-12-22T15:07:02;4.85;;;2.05;;
31990;SDS011;18508;49.386;8.370;2023-12-22T15:09:41;4.40;;;2.13;;
31990;SDS011;18508;49.386;8.370;2023-12-22T15:12:11;6.93;;;3.17;;
31990;SDS011;18508;49.386;8.370;2023-12-22T15:14:43;3.05;;;1.50;;
31990;SDS011;18508;49.386;8.370;2023-12-22T15:17:13;3.42;;;1.50;;